Time;durP1;ratioP1;P1;durP2;ratioP2;P2;SDS_P1;SDS_P2;PMS_P1;PMS_P2;Temp;Humidity;BMP_temperature;BMP_pressure;BME280_temperature;BME280_humidity;BME280_pressure;Samples;Min_cycle;Max_cycle;Signal;HPM_P1;HPM_P2
2022/06/23 00:00:31;;;;;;;9.60;4.75;;;22.60;65.40;;;;;;5029122;28;20017;-64
2022/06/23 00:02:58;;;;;;;10.13;4.88;;;22.60;65.30;;;;;;5007550;28;20104;-64
2022/06/23 00:05:24;;;;;;;8.23;4.95;;;22.60;65.40;;;;;;5021178;28;20060;-64
2022/06/23 00:07:52;;;;;;;8.60;4.30;;;22.60;65.50;;;;;;5026587;28;20509;-64
2022/06/23 00:10:33;;;;;;;9.27;4.68;;;22.60;65.30;;;;;;5026979;28;20037;-64
2022/06/23 00:12:58;;;;;;;9.85;4.68;;;22.60;65.20;;;;;;5022395;28;20041;-64
2022/06/23 00:15:29;;;;;;;9.90;5.00;;;22.50;66.40;;;;;;5029492;28;20029;-64
2022/06/23 00:17:55;;;;;;;9.23;4.50;;;22.50;65.50;;;;;;5009310;28;20458;-64
2022/06/23 00:20:22;;;;;;;9.40;4.72;;;22.50;65.50;;;;;;5026765;28;20104;-64
2022/06/23 00:22:52;;;;;;;8.68;4.65;;;22.50;65.50;;;;;;5022235;28;20032;-64
2022/06/23 00:25:40;;;;;;;7.70;4.30;;;22.50;65.60;;;;;;5009451;28;20082;-64
2022/06/23 00:28:10;;;;;;;9.02;4.25;;;22.50;65.50;;;;;;5025397;28;20033;-64
2022/06/23 00:30:38;;;;;;;9.27;4.70;;;22.50;65.50;;;;;;5028551;28;20027;-64
2022/06/23 00:33:39;;;;;;;9.10;4.47;;;22.50;65.40;;;;;;5026506;28;20041;-64
2022/06/23 00:36:16;;;;;;;7.95;4.82;;;22.50;65.50;;;;;;5025760;28;20033;-64
2022/06/23 00:38:42;;;;;;;10.15;4.43;;;22.50;65.40;;;;;;5025932;28;20030;-64
2022/06/23 00:41:17;;;;;;;7.72;4.40;;;22.50;65.50;;;;;;5009966;28;20035;-64
2022/06/23 00:43:47;;;;;;;10.30;4.20;;;22.50;65.40;;;;;;5018097;28;20067;-64
2022/06/23 00:46:26;;;;;;;7.50;4.47;;;22.50;65.40;;;;;;5045103;28;20021;-64
2022/06/23 00:48:55;;;;;;;9.98;4.68;;;22.50;65.40;;;;;;5060203;28;20048;-64
2022/06/23 00:51:26;;;;;;;9.73;4.40;;;22.50;65.40;;;;;;5062286;28;20041;-64
2022/06/23 00:54:13;;;;;;;8.07;4.18;;;22.40;65.30;;;;;;5062528;28;20025;-64
2022/06/23 00:57:07;;;;;;;9.57;4.53;;;22.40;65.30;;;;;;5044761;28;20620;-65
2022/06/23 00:59:42;;;;;;;9.77;4.68;;;22.40;65.30;;;;;;5046443;28;20029;-64
2022/06/23 01:02:13;;;;;;;7.43;4.00;;;22.40;65.30;;;;;;5061729;28;20100;-64
2022/06/23 01:04:57;;;;;;;8.70;4.28;;;22.40;65.30;;;;;;5062077;28;20389;-64
2022/06/23 01:07:35;;;;;;;8.52;4.68;;;22.50;65.40;;;;;;5041218;28;20025;-64
2022/06/23 01:10:19;;;;;;;9.48;4.50;;;22.40;65.40;;;;;;5044985;28;20116;-64
2022/06/23 01:12:47;;;;;;;7.95;4.07;;;22.40;65.30;;;;;;5046987;28;20025;-64
2022/06/23 01:15:37;;;;;;;8.88;4.47;;;22.40;65.40;;;;;;5044481;28;20128;-64
2022/06/23 01:18:19;;;;;;;7.07;4.07;;;22.40;65.40;;;;;;5024370;28;20501;-64
2022/06/23 01:21:08;;;;;;;7.72;4.13;;;22.40;65.40;;;;;;5060715;28;20025;-64
2022/06/23 01:23:52;;;;;;;9.05;4.07;;;22.40;65.50;;;;;;5057290;28;20048;-64
2022/06/23 01:26:30;;;;;;;6.13;4.00;;;22.30;65.40;;;;;;5057220;28;20029;-64
2022/06/23 01:29:02;;;;;;;6.88;4.05;;;22.40;65.50;;;;;;5041861;28;20061;-64
2022/06/23 01:31:34;;;;;;;8.68;4.10;;;22.30;65.40;;;;;;5060558;28;20082;-65
2022/06/23 01:34:04;;;;;;;7.50;4.10;;;22.30;65.40;;;;;;5028993;28;20043;-64
2022/06/23 01:36:38;;;;;;;7.57;4.03;;;22.30;65.40;;;;;;5061304;28;20033;-64
2022/06/23 01:39:06;;;;;;;6.77;4.10;;;22.30;65.50;;;;;;5044541;28;20017;-65
2022/06/23 01:41:42;;;;;;;7.95;4.20;;;22.30;65.50;;;;;;5060524;28;20441;-64
2022/06/23 01:44:19;;;;;;;7.45;3.97;;;22.30;65.50;;;;;;5039330;28;20119;-64
2022/06/23 01:46:47;;;;;;;9.00;4.45;;;22.30;65.50;;;;;;5023266;28;20033;-64
2022/06/23 01:49:19;;;;;;;6.82;3.97;;;22.30;65.50;;;;;;5008752;28;20025;-65
2022/06/23 01:51:50;;;;;;;6.82;3.90;;;22.30;65.60;;;;;;4992960;28;20033;-64
2022/06/23 01:54:25;;;;;;;7.65;4.20;;;22.30;65.60;;;;;;5009222;28;20179;-64
2022/06/23 01:57:05;;;;;;;6.70;3.75;;;22.30;65.50;;;;;;5024820;28;20139;-64
2022/06/23 01:59:39;;;;;;;6.80;3.90;;;22.30;65.50;;;;;;5020663;28;20065;-64
2022/06/23 02:02:14;;;;;;;8.40;4.15;;;22.30;65.60;;;;;;5024261;28;20030;-64
2022/06/23 02:05:01;;;;;;;7.80;3.83;;;22.30;65.60;;;;;;5023374;28;20025;-64
2022/06/23 02:07:29;;;;;;;7.85;4.25;;;22.30;65.60;;;;;;5024287;28;20049;-64
2022/06/23 02:10:22;;;;;;;7.07;3.83;;;22.20;65.70;;;;;;5026112;28;20060;-64
2022/06/23 02:13:07;;;;;;;7.10;3.80;;;22.20;65.60;;;;;;4923682;29;20055;-64
2022/06/23 02:15:45;;;;;;;7.05;3.75;;;22.20;65.60;;;;;;4929129;29;20590;-64
2022/06/23 02:18:17;;;;;;;6.22;3.60;;;22.20;65.60;;;;;;4927367;29;20051;-64
2022/06/23 02:21:00;;;;;;;7.28;4.13;;;22.20;65.60;;;;;;4924450;29;20093;-64
2022/06/23 02:23:39;;;;;;;6.60;3.70;;;22.20;65.70;;;;;;4923355;29;20103;-64
2022/06/23 02:26:10;;;;;;;6.85;3.63;;;22.20;65.60;;;;;;4924644;29;20041;-64
2022/06/23 02:28:41;;;;;;;5.38;3.60;;;22.20;65.70;;;;;;4925756;29;20044;-64
2022/06/23 02:31:24;;;;;;;7.53;4.22;;;22.20;65.80;;;;;;4925108;29;20187;-64
2022/06/23 02:33:57;;;;;;;6.70;3.90;;;22.20;65.80;;;;;;4909829;29;20031;-64
2022/06/23 02:36:37;;;;;;;7.88;3.80;;;22.10;65.80;;;;;;4916090;29;20513;-64
2022/06/23 02:39:12;;;;;;;6.05;3.78;;;22.20;65.80;;;;;;4926700;29;20212;-64
2022/06/23 02:42:02;;;;;;;7.13;3.85;;;22.20;65.80;;;;;;4909224;29;20811;-64
2022/06/23 02:44:53;;;;;;;9.13;4.13;;;22.10;65.70;;;;;;4941154;28;20042;-65
2022/06/23 02:47:39;;;;;;;7.32;4.00;;;22.10;65.80;;;;;;4967174;28;20046;-64
2022/06/23 02:50:11;;;;;;;6.97;3.63;;;22.10;65.80;;;;;;5014647;28;20048;-64
2022/06/23 02:53:02;;;;;;;6.97;3.75;;;22.10;65.80;;;;;;5048468;28;20029;-64
2022/06/23 02:55:45;;;;;;;6.93;3.80;;;22.10;65.80;;;;;;5048384;28;20052;-64
2022/06/23 02:58:18;;;;;;;7.57;4.13;;;22.10;65.80;;;;;;5063967;28;20037;-64
2022/06/23 03:00:46;;;;;;;7.85;4.07;;;22.10;65.90;;;;;;5046094;28;20505;-65
2022/06/23 03:03:50;;;;;;;7.25;3.90;;;22.10;65.80;;;;;;5049088;28;20025;-65
2022/06/23 03:06:18;;;;;;;7.57;3.85;;;22.10;65.90;;;;;;5046820;28;20039;-64
2022/06/23 03:08:47;;;;;;;7.22;3.60;;;22.10;65.90;;;;;;5045763;28;20031;-65
2022/06/23 03:11:51;;;;;;;6.55;3.80;;;22.10;65.90;;;;;;5049253;28;20025;-65
2022/06/23 03:14:42;;;;;;;7.28;3.83;;;22.10;65.90;;;;;;5048514;28;20029;-64
2022/06/23 03:17:45;;;;;;;6.35;3.60;;;22.10;65.80;;;;;;5048236;28;20033;-65
2022/06/23 03:20:25;;;;;;;5.80;3.53;;;22.10;65.80;;;;;;5055487;28;20041;-65
2022/06/23 03:23:05;;;;;;;8.27;3.80;;;22.00;65.80;;;;;;5061848;28;20150;-65
2022/06/23 03:25:47;;;;;;;5.78;3.78;;;22.10;65.80;;;;;;5043597;28;20024;-64
2022/06/23 03:28:26;;;;;;;6.72;3.60;;;22.00;65.70;;;;;;5045488;28;20056;-64
2022/06/23 03:31:22;;;;;;;6.40;3.90;;;22.00;65.80;;;;;;5046441;28;20029;-65
2022/06/23 03:33:53;;;;;;;5.93;3.72;;;22.00;65.80;;;;;;5046287;28;20041;-64
2022/06/23 03:36:41;;;;;;;7.13;4.07;;;22.00;65.90;;;;;;5063293;28;20028;-64
2022/06/23 03:42:03;;;;;;;7.23;3.50;;;22.00;65.90;;;;;;5047902;28;20385;-65
2022/06/23 03:44:33;;;;;;;5.43;3.45;;;22.00;65.90;;;;;;5047187;28;20043;-65
2022/06/23 03:47:11;;;;;;;6.38;3.78;;;22.00;66.10;;;;;;5062002;28;20029;-64
2022/06/23 03:49:59;;;;;;;6.55;3.85;;;22.00;66.00;;;;;;5030132;28;20021;-65
2022/06/23 03:53:02;;;;;;;6.80;3.50;;;22.00;66.00;;;;;;5047822;28;20052;-64
2022/06/23 03:55:36;;;;;;;7.18;3.60;;;22.00;65.90;;;;;;5047043;28;20040;-64
2022/06/23 03:58:10;;;;;;;7.13;3.72;;;21.90;66.00;;;;;;5046280;28;20043;-65
2022/06/23 04:00:38;;;;;;;6.20;3.70;;;22.00;66.00;;;;;;5063672;28;20158;-64
2022/06/23 04:03:11;;;;;;;6.43;3.65;;;22.00;66.00;;;;;;5048696;28;20041;-64
2022/06/23 04:05:55;;;;;;;6.28;3.67;;;21.90;65.90;;;;;;5063322;28;20457;-65
2022/06/23 04:08:32;;;;;;;7.25;3.65;;;21.90;66.00;;;;;;5047246;28;20033;-64
2022/06/23 04:11:43;;;;;;;5.65;3.50;;;21.90;66.00;;;;;;5046613;28;20028;-65
2022/06/23 04:13:49;;;;;;;6.15;3.60;;;21.90;65.90;;;;;;5045577;28;20106;-64
2022/06/23 04:16:15;;;;;;;5.95;3.60;;;21.90;65.90;;;;;;5047983;28;20017;-64
2022/06/23 04:18:44;;;;;;;5.28;3.40;;;21.90;66.00;;;;;;5043660;28;20026;-65
2022/06/23 04:21:14;;;;;;;6.43;3.70;;;21.90;65.90;;;;;;5047211;28;20107;-64
2022/06/23 04:23:42;;;;;;;6.00;3.83;;;21.90;65.90;;;;;;5030149;28;20158;-63
2022/06/23 04:26:28;;;;;;;5.28;3.15;;;21.90;66.00;;;;;;5060783;28;20033;-63
2022/06/23 04:29:00;;;;;;;6.93;3.80;;;21.90;66.00;;;;;;5061715;28;20415;-63
2022/06/23 04:31:40;;;;;;;6.15;3.70;;;21.90;65.90;;;;;;5043343;28;20041;-63
2022/06/23 04:34:06;;;;;;;4.97;3.45;;;21.90;66.00;;;;;;5044165;28;20045;-63
2022/06/23 04:36:33;;;;;;;6.97;3.70;;;21.90;66.00;;;;;;5047121;28;20650;-63
2022/06/23 04:39:03;;;;;;;5.90;3.83;;;21.90;66.00;;;;;;5062430;28;20025;-63
2022/06/23 04:41:35;;;;;;;6.30;3.72;;;21.90;66.00;;;;;;5061616;28;20040;-63
2022/06/23 04:44:14;;;;;;;6.35;3.50;;;21.90;66.00;;;;;;5043424;28;20510;-63
2022/06/23 04:46:58;;;;;;;5.65;3.47;;;21.90;66.00;;;;;;5062501;28;20490;-63
2022/06/23 04:49:36;;;;;;;6.87;3.60;;;21.90;66.00;;;;;;5046142;28;20028;-63
2022/06/23 04:52:20;;;;;;;5.25;3.40;;;21.90;66.00;;;;;;5062108;28;20053;-63
2022/06/23 04:55:04;;;;;;;6.68;3.60;;;21.80;66.00;;;;;;5044441;28;20029;-63
2022/06/23 04:57:42;;;;;;;6.68;3.83;;;21.90;66.00;;;;;;5046688;28;20044;-63
2022/06/23 05:00:25;;;;;;;6.00;3.50;;;21.80;65.90;;;;;;5047981;28;20037;-63
2022/06/23 05:02:58;;;;;;;5.97;3.30;;;21.90;66.00;;;;;;5061131;28;20120;-68
2022/06/23 05:05:33;;;;;;;7.97;4.10;;;21.80;65.90;;;;;;5045385;28;20059;-60
2022/06/23 05:08:01;;;;;;;5.90;3.30;;;21.80;66.20;;;;;;5044905;28;20020;-61
2022/06/23 05:10:43;;;;;;;5.95;3.50;;;21.90;66.10;;;;;;5044856;28;20079;-60
2022/06/23 05:13:12;;;;;;;6.05;3.35;;;21.80;66.10;;;;;;5059950;28;20037;-60
2022/06/23 05:16:05;;;;;;;6.38;3.40;;;21.90;66.10;;;;;;5044521;28;20079;-61
2022/06/23 05:18:38;;;;;;;8.07;4.05;;;21.80;66.30;;;;;;5046106;28;20116;-60
2022/06/23 05:21:13;;;;;;;5.50;3.45;;;21.90;66.30;;;;;;5059968;28;20036;-61
2022/06/23 05:23:51;;;;;;;9.80;4.25;;;21.80;66.30;;;;;;5045380;28;20497;-60
2022/06/23 05:26:22;;;;;;;8.00;3.95;;;21.90;66.50;;;;;;5058818;28;20036;-60
2022/06/23 05:28:50;;;;;;;6.40;3.72;;;21.80;66.40;;;;;;5046281;28;20504;-60
2022/06/23 05:31:19;;;;;;;8.55;4.07;;;21.90;66.50;;;;;;5061403;28;20036;-60
2022/06/23 05:33:50;;;;;;;11.07;3.85;;;21.80;66.40;;;;;;5043628;28;20056;-60
2022/06/23 05:36:25;;;;;;;7.65;3.95;;;21.80;66.50;;;;;;5029743;28;20037;-60
2022/06/23 05:39:03;;;;;;;10.70;3.92;;;21.80;66.40;;;;;;5057945;28;20025;-60
2022/06/23 05:41:45;;;;;;;8.20;3.92;;;21.80;66.50;;;;;;5045011;28;20021;-60
2022/06/23 05:44:27;;;;;;;6.28;3.80;;;21.80;66.40;;;;;;5033609;28;20076;-61
2022/06/23 05:46:52;;;;;;;7.85;3.90;;;21.80;66.40;;;;;;5022899;28;20091;-60
2022/06/23 05:49:25;;;;;;;6.60;3.88;;;21.80;66.50;;;;;;5024680;28;20505;-60
2022/06/23 05:52:06;;;;;;;8.43;3.60;;;21.80;66.40;;;;;;4988819;28;20090;-60
2022/06/23 05:54:36;;;;;;;8.23;3.70;;;21.80;66.40;;;;;;5025477;28;20104;-60
2022/06/23 05:57:33;;;;;;;8.68;4.10;;;21.80;66.40;;;;;;5026091;28;20075;-61
2022/06/23 06:00:33;;;;;;;6.00;3.60;;;21.80;66.50;;;;;;5021535;28;20427;-60
2022/06/23 06:03:17;;;;;;;7.65;3.60;;;21.80;67.20;;;;;;5023559;28;20040;-61
2022/06/23 06:05:45;;;;;;;7.18;3.50;;;21.80;66.50;;;;;;5016861;28;20492;-60
2022/06/23 06:08:19;;;;;;;7.78;3.80;;;21.80;66.50;;;;;;5024871;28;20032;-61
2022/06/23 06:10:45;;;;;;;8.15;3.80;;;21.80;66.60;;;;;;5024777;28;20385;-60
2022/06/23 06:13:22;;;;;;;10.48;4.18;;;21.80;66.60;;;;;;5005817;28;20041;-60
2022/06/23 06:15:55;;;;;;;6.68;3.83;;;21.70;66.60;;;;;;4989414;28;20028;-61
2022/06/23 06:18:32;;;;;;;6.50;3.67;;;21.80;66.60;;;;;;5017694;28;20045;-61
2022/06/23 06:20:59;;;;;;;7.75;3.65;;;21.70;66.50;;;;;;4998794;28;20569;-60
2022/06/23 06:23:38;;;;;;;9.30;3.90;;;21.80;66.60;;;;;;5029510;28;20087;-60
2022/06/23 06:26:04;;;;;;;6.93;3.60;;;21.70;66.50;;;;;;5014571;28;20036;-60
2022/06/23 06:28:31;;;;;;;7.55;4.10;;;21.70;66.50;;;;;;5031731;28;20413;-61
2022/06/23 06:31:15;;;;;;;8.65;4.15;;;21.70;66.50;;;;;;5019035;28;20044;-60
2022/06/23 06:33:47;;;;;;;7.28;3.80;;;21.70;66.50;;;;;;5032097;28;20502;-61
2022/06/23 06:36:36;;;;;;;7.82;3.80;;;21.70;66.50;;;;;;5032583;28;20053;-61
2022/06/23 06:39:20;;;;;;;7.50;3.88;;;21.70;66.50;;;;;;5032476;28;20030;-60
2022/06/23 06:42:06;;;;;;;8.65;4.03;;;21.70;66.50;;;;;;5024970;28;20438;-61
2022/06/23 06:44:32;;;;;;;7.20;3.80;;;21.70;66.60;;;;;;5027129;28;20045;-61
2022/06/23 06:46:59;;;;;;;8.23;4.00;;;21.70;66.50;;;;;;5051075;28;20061;-61
2022/06/23 06:49:25;;;;;;;6.22;3.60;;;21.70;66.40;;;;;;5050299;28;20049;-61
2022/06/23 06:51:52;;;;;;;7.53;3.70;;;21.70;66.50;;;;;;5050285;28;20681;-61
2022/06/23 06:54:18;;;;;;;8.60;3.78;;;21.70;66.50;;;;;;5051371;28;20021;-61
2022/06/23 06:56:57;;;;;;;7.63;3.95;;;21.70;66.50;;;;;;5050737;28;20033;-60
2022/06/23 07:00:01;;;;;;;8.35;4.03;;;21.70;66.50;;;;;;5050664;28;20480;-61
2022/06/23 07:02:34;;;;;;;6.18;3.80;;;21.70;66.50;;;;;;5037633;28;20037;-61
2022/06/23 07:05:17;;;;;;;8.18;3.90;;;21.70;66.50;;;;;;5023196;28;20025;-60
2022/06/23 07:07:45;;;;;;;6.00;3.58;;;21.70;66.40;;;;;;5036447;28;20076;-60
2022/06/23 07:10:17;;;;;;;6.80;3.58;;;21.70;66.50;;;;;;5039963;28;20038;-61
2022/06/23 07:12:49;;;;;;;7.97;3.75;;;21.70;66.40;;;;;;5042738;28;20437;-61
2022/06/23 07:15:34;;;;;;;7.30;3.97;;;21.70;66.40;;;;;;5044499;28;20464;-60
2022/06/23 07:18:15;;;;;;;7.95;3.70;;;21.70;66.40;;;;;;5039995;28;20402;-61
2022/06/23 07:20:45;;;;;;;6.20;3.58;;;21.70;66.50;;;;;;5038881;28;20033;-60
2022/06/23 07:23:13;;;;;;;7.28;4.03;;;21.70;66.40;;;;;;5041150;28;20359;-60
2022/06/23 07:26:19;;;;;;;6.10;3.60;;;21.70;66.40;;;;;;5042374;28;20115;-61
2022/06/23 07:28:48;;;;;;;8.30;3.42;;;21.70;66.50;;;;;;5035692;28;20528;-61
2022/06/23 07:31:19;;;;;;;7.40;3.83;;;21.70;66.40;;;;;;5038650;28;20041;-61
2022/06/23 07:34:05;;;;;;;6.85;3.63;;;21.70;66.40;;;;;;5038689;28;20033;-60
2022/06/23 07:36:42;;;;;;;8.90;4.22;;;21.70;66.40;;;;;;5041813;28;20036;-61
2022/06/23 07:39:13;;;;;;;7.03;3.75;;;21.70;66.40;;;;;;5051495;28;20405;-61
2022/06/23 07:41:48;;;;;;;8.15;4.00;;;21.60;66.30;;;;;;5062227;28;20033;-61
2022/06/23 07:44:20;;;;;;;7.53;3.80;;;21.60;66.30;;;;;;5060452;28;20178;-61
2022/06/23 07:46:46;;;;;;;7.93;3.88;;;21.60;66.40;;;;;;5046321;28;20029;-61
2022/06/23 07:49:12;;;;;;;6.55;3.85;;;21.60;66.40;;;;;;5044269;28;20036;-61
2022/06/23 07:51:37;;;;;;;6.45;3.80;;;21.60;66.40;;;;;;5062045;28;20036;-61
2022/06/23 07:54:04;;;;;;;7.07;3.80;;;21.60;66.50;;;;;;5044749;28;20086;-61
2022/06/23 07:56:31;;;;;;;7.32;3.90;;;21.60;66.40;;;;;;5057780;28;20447;-61
2022/06/23 07:59:01;;;;;;;8.25;4.05;;;21.60;66.50;;;;;;5047477;28;20060;-61
2022/06/23 08:01:37;;;;;;;8.75;4.25;;;21.60;66.40;;;;;;5062659;28;20047;-61
2022/06/23 08:04:11;;;;;;;7.22;4.30;;;21.60;66.50;;;;;;5062764;28;20033;-61
2022/06/23 08:06:37;;;;;;;6.65;3.58;;;21.60;66.60;;;;;;5062246;28;20025;-61
2022/06/23 08:09:15;;;;;;;6.93;4.10;;;21.60;66.50;;;;;;5048530;28;20093;-61
2022/06/23 08:14:41;;;;;;;6.50;4.10;;;21.60;66.60;;;;;;5057065;28;20109;-61
2022/06/23 08:17:16;;;;;;;6.05;3.80;;;21.60;66.60;;;;;;5061883;28;20031;-61
2022/06/23 08:19:47;;;;;;;8.48;4.05;;;21.60;66.60;;;;;;5046382;28;20029;-61
2022/06/23 08:22:21;;;;;;;5.88;3.58;;;21.60;66.60;;;;;;5045109;28;20118;-61
2022/06/23 08:24:48;;;;;;;6.40;3.70;;;21.60;66.60;;;;;;5045797;28;20029;-61
2022/06/23 08:27:18;;;;;;;7.57;4.05;;;21.60;66.60;;;;;;5047557;28;20041;-61
2022/06/23 08:29:57;;;;;;;6.82;4.00;;;21.60;66.60;;;;;;5047681;28;20728;-61
2022/06/23 08:32:22;;;;;;;7.20;3.78;;;21.60;66.60;;;;;;5058486;28;20410;-61
2022/06/23 08:34:55;;;;;;;7.25;3.90;;;21.60;66.60;;;;;;5061534;28;20034;-61
2022/06/23 08:37:22;;;;;;;7.72;3.95;;;21.60;66.60;;;;;;5046554;28;20033;-62
2022/06/23 08:39:56;;;;;;;7.25;3.92;;;21.60;66.60;;;;;;5046670;28;20145;-61
2022/06/23 08:42:27;;;;;;;5.05;3.53;;;21.60;66.60;;;;;;5045615;28;20029;-61
2022/06/23 08:45:01;;;;;;;7.85;4.00;;;21.60;66.60;;;;;;5029662;28;20072;-61
2022/06/23 08:47:52;;;;;;;7.72;4.28;;;21.60;66.60;;;;;;5060492;28;20082;-61
2022/06/23 08:50:30;;;;;;;6.93;3.88;;;21.60;66.60;;;;;;5047301;28;20071;-61
2022/06/23 08:52:58;;;;;;;6.63;3.78;;;21.60;66.70;;;;;;5061492;28;20081;-61
2022/06/23 08:55:35;;;;;;;7.07;4.00;;;21.60;67.20;;;;;;5046042;28;20427;-61
2022/06/23 08:58:11;;;;;;;6.35;4.20;;;21.60;67.40;;;;;;5044247;28;20033;-61
2022/06/23 09:00:55;;;;;;;8.20;3.95;;;21.60;67.20;;;;;;5056936;28;20112;-61
2022/06/23 09:03:28;;;;;;;8.52;3.95;;;21.60;67.30;;;;;;5061390;28;20438;-61
2022/06/23 09:06:28;;;;;;;8.48;4.05;;;21.60;66.90;;;;;;5043067;28;20033;-61
2022/06/23 09:09:22;;;;;;;6.35;3.95;;;21.60;67.00;;;;;;5059549;28;20026;-61
2022/06/23 09:11:57;;;;;;;6.72;3.97;;;21.60;67.00;;;;;;5059231;28;20695;-61
2022/06/23 09:14:33;;;;;;;;;;;21.60;67.10;;;;;;5047263;28;20112;-61
2022/06/23 09:17:25;;;;;;;6.75;4.07;;;21.60;67.10;;;;;;5044065;28;19917;-61
2022/06/23 09:20:30;;;;;;;7.47;3.90;;;21.60;67.00;;;;;;5039708;28;20059;-61
2022/06/23 09:23:27;;;;;;;6.35;3.85;;;21.60;67.20;;;;;;5038563;28;20496;-61
2022/06/23 09:26:06;;;;;;;7.55;4.00;;;21.60;67.20;;;;;;5044204;28;20039;-61
2022/06/23 09:28:48;;;;;;;7.50;3.42;;;21.60;67.20;;;;;;5042459;28;20016;-61
2022/06/23 09:31:35;;;;;;;6.25;3.78;;;21.60;67.10;;;;;;5053308;28;20060;-61
2022/06/23 09:34:21;;;;;;;7.88;3.65;;;21.60;67.00;;;;;;5056483;28;20029;-61
2022/06/23 09:37:38;;;;;;;5.40;3.53;;;21.60;67.10;;;;;;5040932;28;20136;-61
2022/06/23 09:40:35;;;;;;;8.70;3.72;;;21.60;67.00;;;;;;4966299;28;20055;-61
2022/06/23 09:43:12;;;;;;;5.97;3.47;;;21.60;67.30;;;;;;4984371;28;20050;-61
2022/06/23 09:45:43;;;;;;;6.40;3.83;;;21.70;67.60;;;;;;4981568;28;20050;-61
2022/06/23 09:48:18;;;;;;;7.40;3.70;;;21.70;67.60;;;;;;4984215;28;20487;-61
2022/06/23 09:50:55;;;;;;;6.47;3.60;;;21.70;67.60;;;;;;4983471;28;20034;-61
2022/06/23 09:53:58;;;;;;;7.03;3.63;;;21.70;67.30;;;;;;4963047;28;20594;-61
2022/06/23 09:56:46;;;;;;;5.43;3.53;;;21.70;67.00;;;;;;4982469;28;20049;-61
2022/06/23 09:59:52;;;;;;;5.70;3.60;;;21.70;67.00;;;;;;4967275;28;20102;-61
2022/06/23 10:02:46;;;;;;;6.55;3.50;;;21.70;67.10;;;;;;4922707;29;20567;-61
2022/06/23 10:05:42;;;;;;;4.88;3.40;;;21.70;67.10;;;;;;4917614;29;20044;-61
2022/06/23 10:08:27;;;;;;;6.00;3.70;;;21.70;67.10;;;;;;4925560;29;20043;-61
2022/06/23 10:11:20;;;;;;;6.85;3.40;;;21.70;66.90;;;;;;4925446;29;20035;-60
2022/06/23 10:13:52;;;;;;;6.00;3.58;;;21.70;67.30;;;;;;4921919;29;20032;-60
2022/06/23 10:16:36;;;;;;;6.68;3.50;;;21.70;67.50;;;;;;4939840;28;20428;-60
2022/06/23 10:19:08;;;;;;;6.70;3.70;;;21.60;67.30;;;;;;4944561;28;20048;-61
2022/06/23 10:22:01;;;;;;;6.32;3.70;;;21.70;67.20;;;;;;4945319;28;20067;-60
2022/06/23 10:24:48;;;;;;;6.13;3.60;;;21.70;67.30;;;;;;4924216;28;20100;-60
2022/06/23 10:27:41;;;;;;;7.05;3.72;;;21.70;67.10;;;;;;4945490;28;20031;-60
2022/06/23 10:30:29;;;;;;;6.85;3.90;;;21.70;67.00;;;;;;4946069;28;20572;-60
2022/06/23 10:33:14;;;;;;;6.82;3.45;;;21.70;67.70;;;;;;4943430;28;20050;-60
2022/06/23 10:36:02;;;;;;;8.45;3.80;;;21.70;67.70;;;;;;4943778;28;20416;-61
2022/06/23 10:38:35;;;;;;;6.55;4.00;;;21.70;67.70;;;;;;4988121;28;20049;-60
2022/06/23 10:41:22;;;;;;;5.57;3.60;;;21.70;67.50;;;;;;4985753;28;20433;-60
2022/06/23 10:44:05;;;;;;;6.18;3.60;;;21.70;67.60;;;;;;5038821;28;20060;-61
2022/06/23 10:46:34;;;;;;;8.18;3.97;;;21.70;67.40;;;;;;5042454;28;20025;-60
2022/06/23 10:49:25;;;;;;;5.15;3.30;;;21.70;67.30;;;;;;5043052;28;20017;-60
2022/06/23 10:52:16;;;;;;;6.35;3.60;;;21.70;67.30;;;;;;5055564;28;20036;-60
2022/06/23 10:54:54;;;;;;;5.60;3.53;;;21.70;67.30;;;;;;5038942;28;20026;-60
2022/06/23 10:57:41;;;;;;;6.82;3.50;;;21.80;67.30;;;;;;5039799;28;20688;-60
2022/06/23 11:00:19;;;;;;;5.88;3.28;;;21.70;67.20;;;;;;5057830;28;20581;-60
2022/06/23 11:03:06;;;;;;;7.43;3.47;;;21.70;67.10;;;;;;5024665;28;20060;-60
2022/06/23 11:05:53;;;;;;;5.97;3.42;;;21.80;67.40;;;;;;5041893;28;20504;-60
2022/06/23 11:08:46;;;;;;;6.32;3.55;;;21.80;67.20;;;;;;5047242;28;20025;-60
2022/06/23 11:11:34;;;;;;;6.10;3.50;;;21.80;67.10;;;;;;5046483;28;20029;-60
2022/06/23 11:14:34;;;;;;;6.88;3.83;;;21.80;67.10;;;;;;5043814;28;20466;-60
2022/06/23 11:16:59;;;;;;;5.50;3.50;;;21.80;67.20;;;;;;5046574;28;20036;-60
2022/06/23 11:19:57;;;;;;;8.52;3.53;;;21.80;67.00;;;;;;5045634;28;20033;-61
2022/06/23 11:23:11;;;;;;;6.65;3.75;;;21.80;67.00;;;;;;4989627;28;20043;-60
2022/06/23 11:25:43;;;;;;;8.13;3.70;;;21.80;66.90;;;;;;4980147;28;20600;-60
2022/06/23 11:29:00;;;;;;;6.53;3.53;;;21.80;66.90;;;;;;4993217;28;20038;-60
2022/06/23 11:31:54;;;;;;;4.88;3.28;;;21.80;67.10;;;;;;4927802;29;20036;-60
2022/06/23 11:34:37;;;;;;;7.35;3.75;;;21.80;66.90;;;;;;4928324;29;20412;-60
2022/06/23 11:37:37;;;;;;;8.95;3.58;;;21.80;66.90;;;;;;4926303;29;20409;-60
2022/06/23 11:40:16;;;;;;;8.45;3.67;;;21.80;66.90;;;;;;4927046;29;20027;-61
2022/06/23 11:43:13;;;;;;;5.82;3.30;;;21.80;66.90;;;;;;4928559;29;20595;-60
2022/06/23 11:45:43;;;;;;;6.97;3.38;;;21.80;66.90;;;;;;4925532;29;20043;-60
2022/06/23 11:48:17;;;;;;;7.25;3.60;;;21.80;66.80;;;;;;4927374;29;20028;-60
2022/06/23 11:50:57;;;;;;;7.03;3.67;;;21.80;66.80;;;;;;4910415;29;20297;-60
2022/06/23 11:53:29;;;;;;;6.95;3.53;;;21.80;66.70;;;;;;4928342;28;20315;-60
2022/06/23 11:55:57;;;;;;;6.53;3.55;;;21.90;66.90;;;;;;4927062;29;20028;-60
2022/06/23 11:58:34;;;;;;;8.82;3.80;;;21.90;66.70;;;;;;4918177;28;20761;-60
2022/06/23 12:01:16;;;;;;;5.72;3.42;;;21.90;66.70;;;;;;4979362;28;20126;-60
2022/06/23 12:04:11;;;;;;;6.70;3.63;;;21.90;66.60;;;;;;4965497;28;20027;-60
2022/06/23 12:06:45;;;;;;;6.30;3.70;;;21.90;66.50;;;;;;5046195;28;20103;-60
2022/06/23 12:09:23;;;;;;;7.03;3.70;;;22.00;66.50;;;;;;5044346;28;20107;-60
2022/06/23 12:11:48;;;;;;;6.07;3.40;;;22.00;66.50;;;;;;5046806;28;20095;-60
2022/06/23 12:14:15;;;;;;;7.63;3.92;;;22.00;66.50;;;;;;5060487;28;20497;-60
2022/06/23 12:16:50;;;;;;;6.55;3.53;;;22.00;66.40;;;;;;5062576;28;20029;-60
2022/06/23 12:19:17;;;;;;;6.95;3.85;;;22.00;66.40;;;;;;5043648;28;20025;-60
2022/06/23 12:22:26;;;;;;;6.78;3.75;;;22.00;66.10;;;;;;5029346;28;20565;-60
2022/06/23 12:25:12;;;;;;;6.53;3.53;;;22.10;66.20;;;;;;4992770;28;20058;-60
2022/06/23 12:28:19;;;;;;;6.68;4.00;;;22.10;66.20;;;;;;5010615;28;20088;-60
2022/06/23 12:31:01;;;;;;;8.10;3.47;;;22.10;66.10;;;;;;4927421;29;20074;-60
2022/06/23 12:33:37;;;;;;;5.55;3.47;;;22.20;66.10;;;;;;4928230;29;20039;-60
2022/06/23 12:36:35;;;;;;;6.22;3.58;;;22.20;66.00;;;;;;4912779;29;20035;-60
2022/06/23 12:39:07;;;;;;;8.10;3.60;;;22.20;66.00;;;;;;4927688;29;20067;-60
2022/06/23 12:41:54;;;;;;;7.22;3.55;;;22.20;65.80;;;;;;4910070;29;20520;-60
2022/06/23 12:44:37;;;;;;;5.97;3.63;;;22.20;65.90;;;;;;4908386;29;20138;-60
2022/06/23 12:47:12;;;;;;;7.55;3.70;;;22.20;65.90;;;;;;4910066;29;20485;-60
2022/06/23 12:49:50;;;;;;;6.97;3.72;;;22.20;65.80;;;;;;4909152;29;20043;-60
2022/06/23 12:52:21;;;;;;;7.93;3.63;;;22.20;65.70;;;;;;4926623;29;20127;-60
2022/06/23 12:54:53;;;;;;;5.57;3.33;;;22.20;65.60;;;;;;4927652;29;20035;-60
2022/06/23 12:57:37;;;;;;;5.78;3.80;;;22.30;65.70;;;;;;4926180;29;20027;-60
2022/06/23 13:00:21;;;;;;;7.25;3.63;;;22.20;65.80;;;;;;4927324;29;20224;-61
2022/06/23 13:02:53;;;;;;;7.60;3.60;;;22.20;65.70;;;;;;4947856;28;20042;-60
2022/06/23 13:05:24;;;;;;;7.05;3.60;;;22.20;65.70;;;;;;4951610;28;20029;-60
2022/06/23 13:08:00;;;;;;;8.63;3.58;;;22.30;65.80;;;;;;5022574;28;20037;-60
2022/06/23 13:10:37;;;;;;;7.68;3.80;;;22.20;65.90;;;;;;5060957;28;20025;-60
2022/06/23 13:13:40;;;;;;;8.15;3.83;;;22.20;65.90;;;;;;5060400;28;20551;-60
2022/06/23 13:16:36;;;;;;;7.75;3.72;;;22.20;65.90;;;;;;5060380;28;20108;-61
2022/06/23 13:19:15;;;;;;;8.82;3.65;;;22.20;65.80;;;;;;5048039;28;20079;-61
2022/06/23 13:21:41;;;;;;;6.82;3.60;;;22.20;65.80;;;;;;5042462;28;20099;-61
2022/06/23 13:24:14;;;;;;;7.32;3.80;;;22.20;65.90;;;;;;5061340;28;20164;-61
2022/06/23 13:26:57;;;;;;;7.80;3.92;;;22.20;65.80;;;;;;5043697;28;20082;-61
2022/06/23 13:29:24;;;;;;;7.53;3.70;;;22.20;65.90;;;;;;5055254;28;20057;-61
2022/06/23 13:32:00;;;;;;;7.15;3.75;;;22.20;65.90;;;;;;5044793;28;20045;-60
2022/06/23 13:34:31;;;;;;;6.20;3.85;;;22.10;65.70;;;;;;5057546;28;20033;-60
2022/06/23 13:37:19;;;;;;;8.75;4.38;;;22.20;65.90;;;;;;5058943;28;20081;-61
2022/06/23 13:40:38;;;;;;;6.38;3.83;;;22.20;65.80;;;;;;5016871;28;20030;-61
2022/06/23 13:43:07;;;;;;;6.53;3.70;;;22.20;65.80;;;;;;4964549;28;20038;-60
2022/06/23 13:45:43;;;;;;;7.75;4.03;;;22.20;65.80;;;;;;4963368;28;21068;-60
2022/06/23 13:48:12;;;;;;;7.47;3.90;;;22.20;65.90;;;;;;4963899;28;20089;-61
2022/06/23 13:50:39;;;;;;;7.65;3.92;;;22.10;65.80;;;;;;4945572;28;20041;-61
2022/06/23 13:53:09;;;;;;;9.07;4.07;;;22.10;65.80;;;;;;4948779;28;20056;-60